Time;durP1;ratioP1;P1;durP2;ratioP2;P2;SDS_P1;SDS_P2;PMS_P1;PMS_P2;Temp;Humidity;BMP_temperature;BMP_pressure;BME280_temperature;BME280_humidity;BME280_pressure;Samples;Min_cycle;Max_cycle;Signal;HPM_P1;HPM_P2
2023/08/11 00:00:25;;;;;;;3.42;1.75;;;;;;;17.84;64.14;95576.16;5047395;28;20041;-81
2023/08/11 00:02:51;;;;;;;2.60;1.70;;;;;;;18.18;63.90;95628.38;5051457;28;20040;-80
2023/08/11 00:05:17;;;;;;;3.78;1.67;;;;;;;18.38;63.50;95652.78;5049809;28;20091;-80
2023/08/11 00:07:50;;;;;;;3.10;1.52;;;;;;;18.12;63.75;95622.34;5049384;28;20064;-80
2023/08/11 00:10:16;;;;;;;7.97;1.90;;;;;;;18.13;63.54;95621.25;5050105;28;20116;-80
2023/08/11 00:12:43;;;;;;;5.22;1.70;;;;;;;18.17;63.72;95619.53;5049158;28;20071;-80
2023/08/11 00:15:08;;;;;;;6.00;1.80;;;;;;;17.90;63.87;95571.44;5045848;28;20037;-80
2023/08/11 00:17:34;;;;;;;12.02;2.47;;;;;;;18.49;63.61;95651.38;5047536;28;20035;-80
2023/08/11 00:19:59;;;;;;;6.07;1.65;;;;;;;18.44;63.29;95635.41;5042244;28;20115;-80
2023/08/11 00:22:25;;;;;;;4.03;1.65;;;;;;;18.41;62.99;95622.59;5041083;28;20075;-80
2023/08/11 00:24:50;;;;;;;2.60;1.80;;;;;;;18.40;63.25;95625.59;5043903;28;20029;-80
2023/08/11 00:27:16;;;;;;;3.67;1.85;;;;;;;18.26;63.01;95592.72;5051016;28;20037;-80
2023/08/11 00:29:41;;;;;;;5.97;1.92;;;;;;;18.54;62.88;95628.19;5049437;28;20124;-80
2023/08/11 00:32:07;;;;;;;2.80;1.88;;;;;;;18.52;63.15;95647.28;5049882;28;20080;-80
2023/08/11 00:34:32;;;;;;;7.50;2.20;;;;;;;18.32;63.15;95608.34;5050234;28;20125;-80
2023/08/11 00:36:58;;;;;;;8.15;1.98;;;;;;;18.36;63.38;95611.22;5041773;28;20037;-80
2023/08/11 00:39:23;;;;;;;5.53;1.73;;;;;;;18.35;63.71;95605.06;5050103;28;20442;-80
2023/08/11 00:41:50;;;;;;;3.83;1.85;;;;;;;18.47;63.42;95618.66;5039046;28;20039;-80
2023/08/11 00:44:16;;;;;;;3.53;1.77;;;;;;;18.63;63.75;95631.69;5049756;28;20052;-80
2023/08/11 00:46:43;;;;;;;2.85;1.90;;;;;;;18.57;63.83;95625.69;5047958;28;20462;-80
2023/08/11 00:49:09;;;;;;;5.45;1.83;;;;;;;18.53;63.57;95616.66;5047272;28;20032;-80
2023/08/11 00:51:36;;;;;;;1.95;1.58;;;;;;;17.90;63.38;95531.97;5040460;28;20117;-80
2023/08/11 00:54:02;;;;;;;3.13;1.55;;;;;;;18.65;63.77;95643.72;5045308;28;20760;-80
2023/08/11 00:56:28;;;;;;;3.22;1.70;;;;;;;18.56;64.24;95645.59;5046551;28;20120;-80
2023/08/11 00:58:54;;;;;;;2.85;1.90;;;;;;;18.58;63.81;95648.75;5046491;28;20048;-80
2023/08/11 01:01:20;;;;;;;2.63;2.00;;;;;;;18.51;63.96;95634.97;5049739;28;20059;-80
2023/08/11 01:03:47;;;;;;;1.80;1.48;;;;;;;18.41;64.62;95649.47;5039371;28;20037;-80
2023/08/11 01:06:31;;;;;;;5.97;1.88;;;;;;;18.21;65.23;95649.22;5042424;28;20033;-80
2023/08/11 01:09:12;;;;;;;7.65;2.00;;;;;;;18.29;65.21;95648.47;5045934;28;20057;-80
2023/08/11 01:11:44;;;;;;;5.32;2.00;;;;;;;18.02;64.63;95612.69;5048900;28;20033;-80
2023/08/11 01:14:16;;;;;;;4.30;1.85;;;;;;;17.97;65.34;95630.81;5049474;28;20048;-80
2023/08/11 01:16:45;;;;;;;8.68;1.90;;;;;;;18.18;64.63;95660.56;5042314;28;20099;-80
2023/08/11 01:19:14;;;;;;;3.50;1.90;;;;;;;18.06;64.67;95637.03;5049575;28;20043;-80
2023/08/11 01:21:41;;;;;;;3.17;1.83;;;;;;;18.15;64.90;95653.97;5045998;28;20048;-80
2023/08/11 01:24:07;;;;;;;4.88;2.78;;;;;;;17.96;65.24;95654.16;5039148;28;20033;-80
2023/08/11 01:26:33;;;;;;;4.03;2.10;;;;;;;18.06;65.11;95656.59;5050841;28;20029;-80
2023/08/11 01:28:59;;;;;;;4.97;2.30;;;;;;;17.77;65.28;95610.69;5047209;28;20057;-80
2023/08/11 01:31:25;;;;;;;8.35;2.85;;;;;;;17.90;65.66;95659.97;5049520;28;20817;-80
2023/08/11 01:33:50;;;;;;;4.07;2.58;;;;;;;17.72;65.58;95613.47;5054664;28;20044;-80
2023/08/11 01:36:16;;;;;;;7.28;2.50;;;;;;;17.74;66.23;95643.47;5051909;28;20041;-80
2023/08/11 01:38:42;;;;;;;3.13;2.45;;;;;;;17.59;66.42;95617.81;5046988;28;20037;-80
2023/08/11 01:41:08;;;;;;;6.35;3.00;;;;;;;17.45;66.55;95603.69;5053321;28;20021;-80
2023/08/11 01:43:34;;;;;;;6.57;2.90;;;;;;;17.42;66.35;95574.78;5053686;28;20542;-80
2023/08/11 01:45:59;;;;;;;6.28;2.90;;;;;;;17.57;65.88;95587.81;5050780;28;20124;-80
2023/08/11 01:48:26;;;;;;;6.03;3.30;;;;;;;17.44;65.31;95545.00;5054173;28;20422;-80
2023/08/11 01:50:52;;;;;;;6.25;3.00;;;;;;;18.02;65.11;95655.63;5046722;28;20037;-81
2023/08/11 01:53:18;;;;;;;11.15;3.53;;;;;;;17.99;65.23;95650.88;5050326;28;20124;-80
2023/08/11 01:55:45;;;;;;;3.67;2.72;;;;;;;17.77;64.93;95608.00;5047050;28;20556;-80
2023/08/11 01:58:10;;;;;;;7.72;2.80;;;;;;;18.02;65.09;95650.25;5044284;28;20098;-80
2023/08/11 02:00:36;;;;;;;16.23;2.88;;;;;;;17.94;65.33;95639.47;5050502;28;20100;-80
2023/08/11 02:03:02;;;;;;;7.05;2.70;;;;;;;17.03;65.78;95518.41;5044210;28;20132;-80
2023/08/11 02:05:29;;;;;;;14.98;3.25;;;;;;;17.68;65.72;95617.88;5052580;28;20491;-80
2023/08/11 02:07:55;;;;;;;4.80;2.33;;;;;;;17.61;66.18;95636.28;5047162;28;20087;-79
2023/08/11 02:10:21;;;;;;;6.88;2.72;;;;;;;17.82;65.84;95653.47;5050316;28;20119;-79
2023/08/11 02:12:47;;;;;;;5.63;2.65;;;;;;;16.66;66.79;95515.00;5053462;28;20471;-79
2023/08/11 02:15:13;;;;;;;3.95;2.45;;;;;;;17.52;67.32;95648.84;5052120;28;20033;-79
2023/08/11 02:17:38;;;;;;;10.70;2.55;;;;;;;17.38;67.69;95635.50;5054891;28;20098;-79
2023/08/11 02:20:16;;;;;;;5.88;2.78;;;;;;;17.05;67.67;95584.00;5050586;28;20454;-79
2023/08/11 02:22:42;;;;;;;8.77;2.75;;;;;;;17.41;67.42;95620.66;5035498;28;20057;-79
2023/08/11 02:25:08;;;;;;;6.10;2.25;;;;;;;17.15;67.38;95573.06;5053244;28;20044;-79
2023/08/11 02:27:33;;;;;;;5.80;2.67;;;;;;;16.93;67.07;95533.66;5051370;28;20028;-79
2023/08/11 02:29:58;;;;;;;5.57;2.55;;;;;;;17.33;67.16;95598.06;5053863;28;20043;-80
2023/08/11 02:32:24;;;;;;;5.97;2.47;;;;;;;17.55;67.59;95638.28;5055332;28;20033;-80
2023/08/11 02:34:49;;;;;;;7.72;2.30;;;;;;;17.47;67.24;95620.25;5055004;28;20145;-79
2023/08/11 02:37:15;;;;;;;5.18;2.08;;;;;;;17.70;67.54;95666.63;5052801;28;20037;-79
2023/08/11 02:39:40;;;;;;;4.75;2.05;;;;;;;17.43;67.69;95629.22;5039722;28;20045;-79
2023/08/11 02:42:06;;;;;;;10.02;2.75;;;;;;;17.17;68.32;95618.28;5040534;28;20072;-79
2023/08/11 02:44:31;;;;;;;4.10;2.78;;;;;;;17.52;68.15;95670.28;5055662;28;20029;-79
2023/08/11 02:46:57;;;;;;;5.70;2.17;;;;;;;17.50;68.45;95665.22;5055259;28;20033;-80
2023/08/11 02:49:22;;;;;;;4.07;2.30;;;;;;;17.18;68.05;95615.31;5054217;28;20094;-79
2023/08/11 02:51:47;;;;;;;7.50;2.28;;;;;;;17.51;68.42;95671.38;5047762;28;20496;-79
2023/08/11 02:54:13;;;;;;;4.97;2.47;;;;;;;17.54;67.92;95673.47;5053559;28;20125;-79
2023/08/11 02:56:45;;;;;;;6.85;2.05;;;;;;;17.27;68.60;95666.31;5052430;28;20033;-79
2023/08/11 02:59:11;;;;;;;8.82;2.50;;;;;;;16.06;69.08;95491.16;5036584;28;20479;-79
2023/08/11 03:01:36;;;;;;;4.32;2.17;;;;;;;17.04;69.21;95638.69;5054429;28;20040;-79
2023/08/11 03:04:02;;;;;;;7.88;2.72;;;;;;;17.18;69.39;95670.81;5044200;28;20044;-79
2023/08/11 03:06:27;;;;;;;5.93;2.30;;;;;;;17.26;69.42;95672.75;5054498;28;20025;-79
2023/08/11 03:08:53;;;;;;;3.90;2.35;;;;;;;17.36;69.12;95673.34;5047133;28;20025;-79
2023/08/11 03:11:18;;;;;;;3.78;2.28;;;;;;;17.09;68.98;95624.41;5054013;28;20078;-79
2023/08/11 03:13:44;;;;;;;3.90;2.20;;;;;;;17.10;69.09;95634.00;5040415;28;20041;-79
2023/08/11 03:16:10;;;;;;;8.75;2.22;;;;;;;17.06;69.52;95616.97;5052244;28;20102;-79
2023/08/11 03:18:35;;;;;;;3.60;2.10;;;;;;;17.18;69.47;95657.41;5044994;28;20047;-79
2023/08/11 03:21:02;;;;;;;4.35;2.08;;;;;;;17.39;69.14;95679.97;5046127;28;20131;-79
2023/08/11 03:23:28;;;;;;;5.57;2.30;;;;;;;17.20;69.38;95657.91;5052628;28;20041;-79
2023/08/11 03:25:54;;;;;;;5.10;2.47;;;;;;;16.93;69.33;95616.72;5051422;28;20499;-79
2023/08/11 03:28:20;;;;;;;2.05;1.75;;;;;;;17.06;69.61;95636.50;5055064;28;20037;-79
2023/08/11 03:30:46;;;;;;;3.08;2.30;;;;;;;17.26;69.62;95686.97;5051978;28;20048;-79
2023/08/11 03:33:11;;;;;;;3.42;2.65;;;;;;;17.07;69.60;95648.03;5030829;28;20033;-79
2023/08/11 03:35:37;;;;;;;5.53;2.40;;;;;;;16.98;69.54;95631.88;5048650;28;20211;-79
2023/08/11 03:38:02;;;;;;;5.82;2.10;;;;;;;17.12;69.76;95667.44;5047739;28;20194;-79
2023/08/11 03:40:29;;;;;;;10.00;3.03;;;;;;;17.03;70.59;95687.22;5048682;28;20399;-80
2023/08/11 03:42:55;;;;;;;7.75;2.25;;;;;;;16.66;70.87;95634.72;5046504;28;20033;-79
2023/08/11 03:45:20;;;;;;;3.65;2.25;;;;;;;16.93;70.63;95672.97;5050389;28;20414;-79
2023/08/11 03:47:46;;;;;;;6.85;2.65;;;;;;;16.90;70.78;95668.22;5042949;28;20039;-79
2023/08/11 03:50:11;;;;;;;4.85;2.80;;;;;;;17.13;70.50;95681.66;5050197;28;20390;-79
2023/08/11 03:52:38;;;;;;;6.18;2.80;;;;;;;16.95;70.53;95670.75;5041830;28;20047;-79
2023/08/11 03:55:04;;;;;;;9.70;3.03;;;;;;;16.92;70.54;95665.22;5037734;28;20099;-79
2023/08/11 03:57:29;;;;;;;7.30;2.17;;;;;;;17.13;70.33;95687.00;5043995;28;20476;-79
2023/08/11 03:59:54;;;;;;;11.88;2.65;;;;;;;17.09;70.12;95662.69;5049826;28;20037;-79
2023/08/11 04:02:20;;;;;;;7.18;2.58;;;;;;;17.11;70.15;95665.88;5046511;28;20110;-79
2023/08/11 04:04:45;;;;;;;9.13;3.17;;;;;;;16.85;69.73;95614.75;5051723;28;20117;-79
2023/08/11 04:07:12;;;;;;;6.70;2.45;;;;;;;16.61;69.81;95568.69;5044838;28;20052;-79
2023/08/11 04:09:43;;;;;;;7.78;2.80;;;;;;;17.16;69.44;95644.31;5045136;28;20048;-79
2023/08/11 04:12:10;;;;;;;9.65;3.60;;;;;;;17.37;69.47;95666.09;5050295;28;20029;-79
2023/08/11 04:14:48;;;;;;;6.35;3.10;;;;;;;17.45;nan;95684.13;5088735;27;20377;-79
2023/08/11 04:17:16;;;;;;;6.25;2.50;;;;;;;17.45;nan;95681.44;5088665;28;20214;-79
2023/08/11 04:19:42;;;;;;;4.30;2.38;;;;;;;17.02;nan;95632.03;5086535;28;20093;-79
2023/08/11 04:22:07;;;;;;;7.57;2.35;;;;;;;17.42;nan;95679.34;5087644;28;20020;-79
2023/08/11 04:24:33;;;;;;;10.02;3.00;;;;;;;17.16;nan;95644.31;5087402;28;20139;-79
2023/08/11 04:26:59;;;;;;;7.60;2.75;;;;;;;17.39;nan;95668.47;5088257;28;20036;-80
2023/08/11 04:29:25;;;;;;;5.78;2.67;;;;;;;17.15;nan;95661.50;5086199;28;20131;-80
2023/08/11 04:31:51;;;;;;;8.18;2.90;;;;;;;17.26;nan;95684.28;5086050;28;20086;-79
2023/08/11 04:34:17;;;;;;;5.03;2.78;;;;;;;17.34;nan;95680.88;5089487;28;20020;-79
2023/08/11 04:36:42;;;;;;;11.07;3.10;;;;;;;17.29;nan;95670.28;5087719;28;20254;-79
2023/08/11 04:39:08;;;;;;;5.65;2.72;;;;;;;17.40;nan;95694.94;5090267;28;20036;-79
2023/08/11 04:41:34;;;;;;;6.55;3.35;;;;;;;17.15;nan;95645.41;5070125;28;20421;-79
2023/08/11 04:43:59;;;;;;;5.28;2.92;;;;;;;17.28;nan;95675.94;5086718;28;20085;-79
2023/08/11 04:46:25;;;;;;;10.18;3.15;;;;;;;17.08;nan;95628.19;5086560;28;20108;-79
2023/08/11 04:48:51;;;;;;;5.72;2.88;;;;;;;17.38;nan;95654.25;5089444;28;20052;-79
2023/08/11 04:51:16;;;;;;;4.72;3.40;;;;;;;17.60;nan;95699.84;5086115;28;20109;-81
2023/08/11 04:53:42;;;;;;;5.68;3.10;;;;;;;17.65;nan;95707.00;5086862;28;20086;-80
2023/08/11 04:56:08;;;;;;;8.57;3.28;;;;;;;17.28;nan;95652.59;5087289;28;20032;-80
2023/08/11 04:58:34;;;;;;;6.22;3.20;;;;;;;17.63;nan;95695.78;5094850;28;20579;-79
2023/08/11 05:01:03;;;;;;;11.20;3.45;;;;;;;17.77;nan;95711.84;5087057;28;20028;-79
2023/08/11 05:03:29;;;;;;;8.02;3.33;;;;;;;17.60;nan;95680.28;5088242;28;20132;-80
2023/08/11 05:05:54;;;;;;;5.93;3.78;;;;;;;17.60;nan;95697.16;5082981;28;20522;-79
2023/08/11 05:08:20;;;;;;;9.40;5.88;;;;;;;17.71;nan;95714.63;5085157;28;20465;-79
2023/08/11 05:10:45;;;;;;;15.77;10.05;;;;;;;17.74;nan;95695.25;5083566;28;20484;-80
2023/08/11 05:13:12;;;;;;;15.27;8.38;;;;;;;17.91;nan;95707.19;5085564;28;20415;-79
2023/08/11 05:15:38;;;;;;;15.02;7.25;;;;;;;18.01;nan;95718.44;5082978;28;20550;-80
2023/08/11 05:18:04;;;;;;;12.75;5.88;;;;;;;18.11;nan;95718.19;5084579;28;20036;-79
2023/08/11 05:20:30;;;;;;;20.63;6.50;;;;;;;17.68;nan;95648.19;5084172;28;20030;-80
2023/08/11 05:22:57;;;;;;;14.73;5.28;;;;;;;17.54;nan;95626.00;5089900;28;20174;-79
2023/08/11 05:25:22;;;;;;;10.73;4.50;;;;;;;17.79;nan;95662.13;5078720;28;20379;-79
2023/08/11 05:27:48;;;;;;;11.38;4.40;;;;;;;17.78;nan;95675.84;5074886;28;20089;-79
2023/08/11 05:30:14;;;;;;;9.15;4.07;;;;;;;18.00;nan;95699.97;5071455;28;20286;-80
2023/08/11 05:32:39;;;;;;;5.82;3.80;;;;;;;18.15;nan;95723.75;5072826;28;20131;-80
2023/08/11 05:35:06;;;;;;;15.80;5.03;;;;;;;17.98;nan;95702.19;5075388;28;20052;-80
2023/08/11 05:37:32;;;;;;;9.80;4.32;;;;;;;18.00;nan;95705.34;5070999;28;20024;-80
2023/08/11 05:39:58;;;;;;;9.68;4.85;;;;;;;17.90;nan;95681.44;5070394;28;20115;-80
2023/08/11 05:42:24;;;;;;;9.93;4.65;;;;;;;18.18;nan;95735.75;5073102;28;20028;-80
2023/08/11 05:44:49;;;;;;;6.47;3.85;;;;;;;17.95;nan;95713.50;5072810;28;20396;-80
2023/08/11 05:47:15;;;;;;;6.55;2.97;;;;;;;18.01;nan;95726.50;5071538;28;20036;-80
2023/08/11 05:49:40;;;;;;;6.72;3.60;;;;;;;17.93;nan;95737.16;5077974;28;20036;-80
2023/08/11 05:52:06;;;;;;;14.38;4.80;;;;;;;17.42;nan;95662.47;5073114;28;20410;-80
2023/08/11 05:54:31;;;;;;;6.57;3.28;;;;;;;17.60;nan;95681.06;5075992;28;20154;-80
2023/08/11 05:56:57;;;;;;;9.60;3.58;;;;;;;17.62;nan;95678.13;5072147;28;20028;-80
2023/08/11 05:59:23;;;;;;;12.65;4.63;;;;;;;17.87;nan;95736.50;5070461;28;20617;-80
2023/08/11 06:01:50;;;;;;;6.68;4.13;;;;;;;17.61;nan;95740.88;5069306;28;20028;-80
2023/08/11 06:04:16;;;;;;;7.45;3.38;;;;;;;17.30;nan;95708.59;5070425;28;20028;-80
2023/08/11 06:06:41;;;;;;;7.60;3.90;;;;;;;17.29;nan;95745.34;5070503;28;20036;-80
2023/08/11 06:09:07;;;;;;;6.78;4.13;;;;;;;16.90;nan;95681.59;5071099;28;20030;-80
2023/08/11 06:11:33;;;;;;;11.02;4.20;;;;;;;16.78;nan;95664.47;5070282;28;20032;-80
2023/08/11 06:13:59;;;;;;;8.88;3.83;;;;;;;17.30;nan;95738.88;5071822;28;20071;-80
2023/08/11 06:16:24;;;;;;;5.88;3.65;;;;;;;17.27;nan;95736.00;5070399;28;20028;-80
2023/08/11 06:18:50;;;;;;;10.05;3.72;;;;;;;17.46;nan;95752.75;5071424;28;20024;-80
2023/08/11 06:21:17;;;;;;;7.22;4.10;;;;;;;17.48;nan;95744.38;5070695;28;20536;-80
2023/08/11 06:23:43;;;;;;;10.07;4.10;;;;;;;17.48;nan;95739.81;5068281;28;20107;-80
2023/08/11 06:26:09;;;;;;;4.88;3.63;;;;;;;17.54;nan;95733.25;5070788;28;20120;-80
2023/08/11 06:28:34;;;;;;;6.72;3.67;;;;;;;17.58;nan;95730.75;5071151;28;20039;-80
2023/08/11 06:31:01;;;;;;;12.38;4.05;;;;;;;17.71;nan;95722.66;5054162;28;20123;-80
2023/08/11 06:33:27;;;;;;;6.70;4.28;;;;;;;17.34;nan;95659.44;5070929;28;20119;-80
2023/08/11 06:35:53;;;;;;;9.90;4.72;;;;;;;17.92;nan;95738.28;5071737;28;20062;-80
2023/08/11 06:38:18;;;;;;;9.20;4.22;;;;;;;17.74;nan;95711.34;5073661;28;20030;-80
2023/08/11 06:40:44;;;;;;;8.73;4.82;;;;;;;18.19;nan;95764.19;5076761;28;20117;-79
2023/08/11 06:43:09;;;;;;;9.23;4.95;;;;;;;18.24;nan;95759.47;5072551;28;20023;-79
2023/08/11 06:45:35;;;;;;;12.57;4.47;;;;;;;18.00;nan;95713.41;5072238;28;20032;-79
2023/08/11 06:48:00;;;;;;;10.40;4.30;;;;;;;17.95;nan;95714.31;5055849;28;20036;-82
2023/08/11 06:50:26;;;;;;;9.23;4.28;;;;;;;18.32;nan;95760.59;5067407;28;20056;-79
2023/08/11 06:52:52;;;;;;;7.03;3.83;;;;;;;18.36;nan;95770.44;5070030;28;20033;-80
2023/08/11 06:55:17;;;;;;;7.45;4.25;;;;;;;18.19;nan;95748.06;5072783;28;20093;-80
2023/08/11 06:57:43;;;;;;;8.75;4.05;;;;;;;18.27;nan;95752.69;5069951;28;20089;-80
2023/08/11 07:00:09;;;;;;;7.88;4.25;;;;;;;18.25;nan;95747.63;5075073;28;20036;-80
2023/08/11 07:02:35;;;;;;;8.32;5.05;;;;;;;18.40;nan;95744.53;5070553;28;20093;-81
2023/08/11 07:05:02;;;;;;;8.55;4.28;;;;;;;18.33;nan;95729.97;5068137;28;20056;-81
2023/08/11 07:07:27;;;;;;;12.93;4.30;;;;;;;18.62;nan;95767.09;5070267;28;20398;-81
2023/08/11 07:09:53;;;;;;;14.65;4.15;;;;;;;18.50;nan;95759.59;5063350;28;20128;-80
2023/08/11 07:12:18;;;;;;;9.52;4.53;;;;;;;18.43;nan;95738.56;5068090;28;20123;-80
2023/08/11 07:14:44;;;;;;;6.40;4.43;;;;;;;18.43;nan;95743.16;5071062;28;20080;-81
2023/08/11 07:17:09;;;;;;;11.13;4.72;;;;;;;18.69;nan;95770.91;5069892;28;20036;-81
2023/08/11 07:19:35;;;;;;;6.95;4.43;;;;;;;18.69;nan;95764.78;5068632;28;20090;-81
2023/08/11 07:22:01;;;;;;;4.97;3.55;;;;;;;18.77;nan;95761.31;5069588;28;20086;-81
2023/08/11 07:24:26;;;;;;;7.60;4.55;;;;;;;18.76;nan;95762.44;5067907;28;20033;-80
2023/08/11 07:26:52;;;;;;;11.30;4.22;;;;;;;18.56;nan;95707.34;5065206;28;20041;-80
2023/08/11 07:29:18;;;;;;;6.32;4.03;;;;;;;18.93;nan;95757.09;5064939;28;20405;-80
2023/08/11 07:31:43;;;;;;;7.93;4.18;;;;;;;19.03;nan;95764.09;5069283;28;20033;-80
2023/08/11 07:34:09;;;;;;;13.45;4.93;;;;;;;18.92;nan;95733.25;5071614;28;20486;-81
2023/08/11 07:36:34;;;;;;;9.35;3.65;;;;;;;17.05;nan;95438.53;5065736;28;20040;-80
2023/08/11 07:39:00;;;;;;;7.53;3.63;;;;;;;18.95;nan;95729.91;5072247;28;20447;-81
2023/08/11 07:41:25;;;;;;;9.38;4.25;;;;;;;19.19;nan;95765.25;5067933;28;20119;-81
2023/08/11 07:43:51;;;;;;;13.48;4.05;;;;;;;19.12;nan;95743.41;5066570;28;20052;-80
2023/08/11 07:46:16;;;;;;;7.93;4.22;;;;;;;18.92;nan;95699.06;5067305;28;20052;-80
2023/08/11 07:48:42;;;;;;;8.93;3.58;;;;;;;19.35;nan;95768.28;5066859;28;20035;-80
2023/08/11 07:51:07;;;;;;;7.43;3.60;;;;;;;19.38;nan;95760.34;5069003;28;20036;-81
2023/08/11 07:53:33;;;;;;;4.90;3.45;;;;;;;19.34;nan;95740.59;5066924;28;20025;-80
2023/08/11 07:55:58;;;;;;;8.63;4.28;;;;;;;19.44;nan;95748.34;5067677;28;20037;-81
2023/08/11 07:58:24;;;;;;;7.53;4.13;;;;;;;19.70;nan;95761.03;5067761;28;20108;-80
2023/08/11 08:00:50;;;;;;;8.40;4.05;;;;;;;19.65;nan;95735.09;5067994;28;20040;-81
2023/08/11 08:03:15;;;;;;;8.90;3.42;;;;;;;19.96;nan;95765.31;5070156;28;20040;-81
2023/08/11 08:05:40;;;;;;;7.22;3.83;;;;;;;19.68;nan;95718.31;5072061;28;20051;-81
2023/08/11 08:08:06;;;;;;;6.25;3.80;;;;;;;19.74;nan;95732.41;5069879;28;20086;-81
2023/08/11 08:10:31;;;;;;;4.20;3.15;;;;;;;19.89;nan;95753.44;5070604;28;20478;-80
2023/08/11 08:12:57;;;;;;;9.38;4.40;;;;;;;19.96;nan;95759.13;5067921;28;20053;-80
2023/08/11 08:15:24;;;;;;;8.05;3.53;;;;;;;20.01;nan;95769.72;5068761;28;20043;-80
2023/08/11 08:17:49;;;;;;;4.85;3.50;;;;;;;19.67;nan;95705.97;5068040;28;20045;-80
2023/08/11 08:20:16;;;;;;;7.75;3.60;;;;;;;20.11;nan;95765.91;5067346;28;20509;-80
2023/08/11 08:22:42;;;;;;;4.47;3.10;;;;;;;19.89;nan;95734.59;5069142;28;20105;-80
2023/08/11 08:25:08;;;;;;;4.30;2.88;;;;;;;20.04;nan;95763.72;5067883;28;20063;-80
2023/08/11 08:27:35;;;;;;;5.82;2.88;;;;;;;20.09;nan;95765.44;5066901;28;20129;-80
2023/08/11 08:30:01;;;;;;;10.30;3.63;;;;;;;19.62;nan;95680.00;5069083;28;20040;-79
2023/08/11 08:32:27;;;;;;;9.23;3.58;;;;;;;19.58;nan;95662.13;5069106;28;20102;-80
2023/08/11 08:34:52;;;;;;;9.20;3.28;;;;;;;20.26;nan;95762.72;5067551;28;20040;-79
2023/08/11 08:37:21;;;;;;;8.63;2.85;;;;;;;20.30;nan;95761.75;5067580;28;20086;-80
2023/08/11 08:39:47;;;;;;;6.30;2.95;;;;;;;20.31;nan;95757.94;5068663;28;20043;-80
2023/08/11 08:42:14;;;;;;;12.65;3.45;;;;;;;20.01;nan;95705.13;5069765;28;20501;-80
2023/08/11 08:44:41;;;;;;;5.55;3.13;;;;;;;20.22;nan;95724.84;5069683;28;20032;-80
2023/08/11 08:47:08;;;;;;;5.15;2.92;;;;;;;20.32;nan;95731.81;5067938;28;20082;-80
2023/08/11 08:49:36;;;;;;;5.10;2.92;;;;;;;20.31;nan;95741.78;5068211;28;20227;-80
2023/08/11 08:52:03;;;;;;;6.68;3.10;;;;;;;20.60;nan;95756.47;5067061;28;20090;-81
2023/08/11 08:54:29;;;;;;;7.57;3.72;;;;;;;20.74;nan;95748.97;5071033;28;20119;-80
2023/08/11 08:56:56;;;;;;;5.85;3.33;;;;;;;20.25;nan;95667.66;5068519;28;20059;-80
2023/08/11 08:59:22;;;;;;;5.38;3.47;;;;;;;20.87;nan;95755.25;5068090;28;20100;-80
2023/08/11 09:01:50;;;;;;;6.60;2.85;;;;;;;20.54;nan;95711.94;5072666;28;20036;-80
2023/08/11 09:04:16;;;;;;;10.13;3.10;;;;;;;20.86;nan;95729.41;5073201;28;20089;-80
2023/08/11 09:06:43;;;;;;;8.00;3.45;;;;;;;20.19;nan;95635.84;5072494;28;20028;-80
2023/08/11 09:09:09;;;;;;;4.53;3.35;;;;;;;21.17;nan;95762.25;5073270;28;20028;-80
2023/08/11 09:11:34;;;;;;;4.90;3.20;;;;;;;21.13;nan;95723.56;5072889;28;20024;-80
2023/08/11 09:14:04;;;;;;;9.48;3.30;;;;;;;21.18;nan;95710.69;5067905;28;20055;-79
2023/08/11 09:16:31;;;;;;;5.60;3.10;;;;;;;21.38;nan;95725.31;5062401;28;20029;-80
2023/08/11 09:18:57;;;;;;;4.78;2.95;;;;;;;21.70;nan;95741.88;5069114;28;20115;-80
2023/08/11 09:21:23;;;;;;;9.70;3.10;;;;;;;21.81;nan;95724.19;5071695;28;20067;-80
2023/08/11 09:23:52;;;;;;;12.05;3.45;;;;;;;21.90;nan;95741.06;5078814;28;20024;-80
2023/08/11 09:26:20;;;;;;;3.83;2.58;;;;;;;21.68;nan;95700.94;5066225;28;20544;-80
2023/08/11 09:28:46;;;;;;;4.40;3.05;;;;;;;21.95;nan;95740.88;5063168;28;20033;-80
2023/08/11 09:31:12;;;;;;;6.47;3.60;;;;;;;21.92;nan;95718.03;5075499;28;20024;-80
2023/08/11 09:33:37;;;;;;;5.88;3.47;;;;;;;22.04;nan;95730.03;5073411;28;20036;-80
2023/08/11 09:36:04;;;;;;;8.93;3.58;;;;;;;21.91;nan;95702.16;5073895;28;20112;-80
2023/08/11 09:38:30;;;;;;;6.30;3.85;;;;;;;21.83;nan;95687.59;5065767;28;20028;-80
2023/08/11 09:41:00;;;;;;;9.25;3.25;;;;;;;21.94;nan;95686.09;5070093;28;20119;-80
2023/08/11 09:43:26;;;;;;;8.37;3.13;;;;;;;21.56;nan;95635.00;5067968;28;20024;-80
2023/08/11 09:45:53;;;;;;;7.47;2.88;;;;;;;22.17;nan;95718.13;5067804;28;20812;-80
2023/08/11 09:48:18;;;;;;;10.13;3.33;;;;;;;22.29;nan;95708.13;5068216;28;20028;-80
2023/08/11 09:50:44;;;;;;;6.93;2.90;;;;;;;22.59;nan;95741.19;5073676;28;20055;-80
2023/08/11 09:53:09;;;;;;;4.50;2.80;;;;;;;22.25;nan;95672.13;5072242;28;20097;-80
2023/08/11 09:55:38;;;;;;;6.57;3.10;;;;;;;22.93;nan;95737.28;5074380;28;20028;-80
2023/08/11 09:58:04;;;;;;;7.40;3.65;;;;;;;22.89;nan;95709.34;5072689;28;20035;-80
2023/08/11 10:00:31;;;;;;;3.70;2.80;;;;;;;23.22;nan;95716.53;5071929;28;20410;-80
2023/08/11 10:03:04;;;;;;;7.78;2.90;;;;;;;23.27;nan;95684.59;5072104;28;20074;-80
2023/08/11 10:05:33;;;;;;;5.60;3.30;;;;;;;24.35;nan;95727.91;5073328;28;20238;-80
2023/08/11 10:08:01;;;;;;;5.70;2.63;;;;;;;25.11;nan;95728.63;5073493;28;20068;-81
2023/08/11 10:10:28;;;;;;;6.18;2.65;;;;;;;25.74;nan;95707.53;5071359;28;20028;-81
2023/08/11 10:13:11;;;;;;;7.05;2.72;;;;;;;26.29;nan;95722.63;5071155;28;20071;-81
2023/08/11 10:15:38;;;;;;;7.72;2.88;;;;;;;26.12;nan;95702.09;5071057;28;20059;-82
2023/08/11 10:18:05;;;;;;;4.72;2.92;;;;;;;25.79;nan;95692.88;5071393;28;20069;-81
2023/08/11 10:20:31;;;;;;;7.28;3.33;;;;;;;25.66;nan;95703.09;5072290;28;20035;-80
2023/08/11 10:22:57;;;;;;;4.65;3.33;;;;;;;25.25;nan;95661.88;5074279;28;20491;-81
2023/08/11 10:25:25;;;;;;;4.13;2.80;;;;;;;25.32;nan;95669.41;5060321;28;20424;-84
2023/08/11 10:27:51;;;;;;;2.88;2.42;;;;;;;25.44;nan;95695.63;5068044;28;20513;-80
2023/08/11 10:30:17;;;;;;;4.25;3.03;;;;;;;25.49;nan;95709.69;5072890;28;20453;-80
2023/08/11 10:32:43;;;;;;;7.50;3.53;;;;;;;25.60;nan;95699.91;5070575;28;20040;-81
2023/08/11 10:35:19;;;;;;;7.00;3.25;;;;;;;25.29;nan;95706.19;5070619;28;20043;-80
2023/08/11 10:37:56;;;;;;;3.70;2.80;;;;;;;25.18;nan;95704.34;5048309;28;20056;-81
2023/08/11 10:40:22;;;;;;;5.15;3.40;;;;;;;24.64;nan;95636.44;5069983;28;20046;-82
2023/08/11 10:42:51;;;;;;;7.00;3.15;;;;;;;24.12;nan;95591.38;5068689;28;20032;-80
2023/08/11 10:45:21;;;;;;;7.60;3.47;;;;;;;24.05;nan;95583.88;5067363;28;20032;-80
2023/08/11 10:47:54;;;;;;;9.90;2.75;;;;;;;24.23;nan;95646.69;5055551;28;20049;-81
2023/08/11 10:50:21;;;;;;;6.07;3.47;;;;;;;24.39;nan;95688.13;5052883;28;20043;-81
2023/08/11 10:52:47;;;;;;;8.07;3.35;;;;;;;24.43;nan;95699.06;5070478;28;20440;-80
2023/08/11 10:55:15;;;;;;;6.45;3.47;;;;;;;24.13;nan;95679.66;5068698;28;20478;-80
2023/08/11 10:57:41;;;;;;;12.63;3.70;;;;;;;24.04;nan;95670.91;5069584;28;20036;-80
2023/08/11 11:00:09;;;;;;;7.35;3.40;;;;;;;24.20;nan;95698.84;5065712;28;20088;-80
2023/08/11 11:02:35;;;;;;;6.63;3.33;;;;;;;23.63;nan;95624.19;5098538;28;20044;-80
2023/08/11 11:05:01;;;;;;;9.23;3.42;;;;;;;22.93;nan;95517.44;5064772;28;20036;-81
2023/08/11 11:07:26;;;;;;;5.45;3.50;;;;;;;23.59;nan;95623.28;5048931;28;20060;-80
2023/08/11 11:09:52;;;;;;;11.88;3.70;;;;;;;23.92;nan;95660.16;5064050;28;20044;-80
2023/08/11 11:12:18;;;;;;;11.05;3.63;;;;;;;24.08;nan;95701.63;5067699;28;20036;-80
2023/08/11 11:14:43;;;;;;;9.90;3.83;;;;;;;23.94;nan;95652.47;5073806;28;20460;-80
2023/08/11 11:17:09;;;;;;;5.35;2.97;;;;;;;24.19;nan;95705.38;5054002;28;20025;-81
2023/08/11 11:19:35;;;;;;;10.15;3.58;;;;;;;23.91;nan;95674.81;5073495;28;20035;-80
2023/08/11 11:22:01;;;;;;;9.77;3.80;;;;;;;23.95;nan;95675.72;5068804;28;20028;-80
2023/08/11 11:24:27;;;;;;;5.50;2.70;;;;;;;24.12;nan;95703.28;5068423;28;20388;-80
2023/08/11 11:26:52;;;;;;;9.68;2.80;;;;;;;23.83;nan;95650.25;5060142;28;20119;-80
2023/08/11 11:29:23;;;;;;;11.77;4.07;;;;;;;24.00;nan;95703.34;5060236;28;20051;-80
2023/08/11 11:31:50;;;;;;;5.85;3.08;;;;;;;23.91;nan;95685.66;5060914;28;20131;-80
2023/08/11 11:34:17;;;;;;;6.05;3.30;;;;;;;23.92;nan;95676.41;5064348;28;20132;-80
2023/08/11 11:40:06;;;;;;;4.80;2.97;;;;;;;24.37;nan;95701.25;5075195;28;20137;-80
2023/08/11 11:42:36;;;;;;;14.85;4.05;;;;;;;24.37;nan;95671.44;5064370;28;20683;-80